Time;durP1;ratioP1;P1;durP2;ratioP2;P2;SDS_P1;SDS_P2;PMS_P1;PMS_P2;Temp;Humidity;BMP_temperature;BMP_pressure;BME280_temperature;BME280_humidity;BME280_pressure;Samples;Min_cycle;Max_cycle;Signal;HPM_P1;HPM_P2
2022/03/25 00:01:41;;;;;;;22.63;9.63;;;11.80;83.60;;;;;;7386106;19;20131;-75
2022/03/25 00:04:07;;;;;;;14.37;9.07;;;11.80;83.60;;;;;;7387049;19;20127;-74
2022/03/25 00:06:34;;;;;;;14.57;9.17;;;12.00;83.60;;;;;;7385649;19;20204;-74
2022/03/25 00:09:00;;;;;;;12.97;8.77;;;11.90;84.00;;;;;;7386575;19;20119;-74
2022/03/25 00:11:26;;;;;;;13.50;8.30;;;11.60;84.00;;;;;;7385820;19;20618;-74
2022/03/25 00:13:52;;;;;;;14.00;9.00;;;11.50;85.00;;;;;;7386663;19;20142;-74
2022/03/25 00:16:17;;;;;;;15.00;9.80;;;11.60;84.50;;;;;;7383750;19;20126;-76
2022/03/25 00:18:45;;;;;;;14.00;8.30;;;11.60;84.40;;;;;;7384525;19;20127;-76
2022/03/25 00:21:10;;;;;;;14.03;8.37;;;11.50;84.90;;;;;;7386381;19;20127;-74
2022/03/25 00:23:36;;;;;;;15.80;8.10;;;11.40;85.40;;;;;;7385805;19;20601;-74
2022/03/25 00:26:02;;;;;;;15.50;9.50;;;11.50;85.40;;;;;;7385139;19;20588;-75
2022/03/25 00:28:28;;;;;;;13.23;8.37;;;11.50;85.60;;;;;;7383379;19;20138;-76
2022/03/25 00:30:54;;;;;;;15.60;8.67;;;11.20;86.50;;;;;;7385986;19;20155;-75
2022/03/25 00:33:20;;;;;;;13.73;8.70;;;11.10;86.70;;;;;;7387222;19;20162;-75
2022/03/25 00:35:46;;;;;;;21.40;9.43;;;10.70;87.40;;;;;;7388090;19;20585;-75
2022/03/25 00:38:12;;;;;;;16.83;8.93;;;10.90;87.70;;;;;;7383076;19;20127;-75
2022/03/25 00:40:38;;;;;;;13.87;8.93;;;10.90;87.60;;;;;;7384126;19;20486;-75
2022/03/25 00:43:06;;;;;;;16.03;9.27;;;11.10;87.40;;;;;;7383342;19;20601;-74
2022/03/25 00:45:32;;;;;;;16.37;9.50;;;11.30;86.60;;;;;;7386144;19;20131;-75
2022/03/25 00:47:59;;;;;;;14.67;8.87;;;11.30;86.60;;;;;;7382259;19;20126;-75
2022/03/25 00:50:26;;;;;;;13.77;8.67;;;11.40;85.60;;;;;;7386712;19;20173;-74
2022/03/25 00:52:52;;;;;;;16.23;9.53;;;11.30;86.10;;;;;;7385938;19;20131;-75
2022/03/25 00:55:19;;;;;;;22.43;9.67;;;11.10;86.80;;;;;;7386008;19;20138;-75
2022/03/25 00:57:45;;;;;;;16.30;8.27;;;11.20;87.90;;;;;;7381479;19;20131;-75
2022/03/25 01:00:12;;;;;;;15.97;9.47;;;11.00;87.80;;;;;;7383431;19;20613;-76
2022/03/25 01:02:38;;;;;;;17.17;9.97;;;11.00;88.60;;;;;;7385771;19;20615;-75
2022/03/25 01:05:05;;;;;;;15.07;9.23;;;11.00;88.70;;;;;;7390958;19;20134;-75
2022/03/25 01:07:31;;;;;;;14.63;8.97;;;11.10;88.60;;;;;;7392686;19;20704;-75
2022/03/25 01:09:59;;;;;;;14.20;8.70;;;10.70;89.30;;;;;;7392180;19;20126;-75
2022/03/25 01:12:25;;;;;;;17.83;9.60;;;10.70;89.60;;;;;;7392387;19;20713;-74
2022/03/25 01:14:51;;;;;;;15.47;9.43;;;11.00;89.30;;;;;;7391083;19;20131;-74
2022/03/25 01:17:17;;;;;;;15.13;9.27;;;11.10;88.70;;;;;;7393513;19;20135;-75
2022/03/25 01:19:44;;;;;;;15.23;8.70;;;11.20;88.50;;;;;;7392474;19;20134;-74
2022/03/25 01:22:09;;;;;;;15.67;9.27;;;11.30;88.50;;;;;;7391954;19;20131;-74
2022/03/25 01:24:35;;;;;;;11.53;7.87;;;11.20;88.80;;;;;;7391758;19;20466;-74
2022/03/25 01:27:02;;;;;;;14.90;9.37;;;11.10;89.20;;;;;;7390300;19;20473;-74
2022/03/25 01:29:29;;;;;;;15.33;9.57;;;11.10;89.20;;;;;;7393153;19;20147;-74
2022/03/25 01:31:55;;;;;;;15.23;9.67;;;11.10;89.50;;;;;;7394261;19;20135;-74
2022/03/25 01:34:21;;;;;;;15.07;8.43;;;11.00;89.60;;;;;;7390681;19;20158;-75
2022/03/25 01:36:47;;;;;;;15.13;9.57;;;10.90;90.00;;;;;;7393581;19;20134;-74
2022/03/25 01:39:13;;;;;;;18.57;8.77;;;11.00;90.10;;;;;;7398027;19;20198;-74
2022/03/25 01:41:39;;;;;;;13.70;8.63;;;10.90;90.10;;;;;;7390018;19;20198;-74
2022/03/25 01:44:08;;;;;;;14.50;8.97;;;10.90;90.20;;;;;;7394181;19;20178;-74
2022/03/25 01:46:34;;;;;;;14.73;9.03;;;10.80;90.30;;;;;;7389749;19;20130;-77
2022/03/25 01:49:00;;;;;;;17.00;9.37;;;10.80;90.40;;;;;;7394601;19;20661;-75
2022/03/25 01:51:35;;;;;;;22.07;9.53;;;10.80;90.40;;;;;;7394538;19;20573;-74
2022/03/25 01:54:16;;;;;;;18.80;8.83;;;10.70;90.60;;;;;;7389229;19;20159;-75
2022/03/25 01:56:41;;;;;;;16.70;9.13;;;10.70;90.70;;;;;;7390111;19;20141;-75
2022/03/25 01:59:09;;;;;;;15.90;9.30;;;10.50;90.70;;;;;;7389617;19;20130;-75
2022/03/25 02:01:35;;;;;;;15.40;9.70;;;10.20;90.80;;;;;;7389366;19;20122;-75
2022/03/25 02:04:00;;;;;;;15.67;9.17;;;10.20;91.00;;;;;;7393801;19;20130;-75
2022/03/25 02:06:26;;;;;;;14.93;9.53;;;10.30;91.00;;;;;;7393799;19;20216;-75
2022/03/25 02:08:52;;;;;;;15.93;9.50;;;10.50;91.10;;;;;;7393170;19;20622;-75
2022/03/25 02:11:19;;;;;;;16.63;9.67;;;10.60;91.00;;;;;;7393350;19;20127;-75
2022/03/25 02:13:45;;;;;;;15.63;8.27;;;10.60;91.00;;;;;;7392051;19;20131;-74
2022/03/25 02:16:11;;;;;;;17.47;9.00;;;10.50;91.00;;;;;;7388645;19;20166;-75
2022/03/25 02:18:39;;;;;;;15.33;9.87;;;10.50;91.20;;;;;;7389373;19;20194;-75
2022/03/25 02:21:05;;;;;;;18.40;9.87;;;10.60;91.10;;;;;;7391839;19;20687;-75
2022/03/25 02:23:30;;;;;;;16.47;9.07;;;10.40;91.00;;;;;;7390675;19;20119;-75
2022/03/25 02:25:57;;;;;;;14.77;9.03;;;10.40;91.20;;;;;;7389572;19;20127;-74
2022/03/25 02:28:23;;;;;;;14.97;8.73;;;10.00;91.60;;;;;;7388818;19;20138;-74
2022/03/25 02:30:49;;;;;;;16.03;9.07;;;9.70;92.00;;;;;;7391759;19;20130;-75
2022/03/25 02:33:18;;;;;;;16.77;9.13;;;9.60;92.40;;;;;;7388310;19;20556;-74
2022/03/25 02:35:45;;;;;;;14.73;9.13;;;9.60;92.50;;;;;;7394604;19;20598;-75
2022/03/25 02:38:17;;;;;;;16.70;9.80;;;9.80;92.40;;;;;;7386714;19;20137;-75
2022/03/25 02:40:44;;;;;;;16.67;8.80;;;10.10;92.10;;;;;;7389995;19;20131;-74
2022/03/25 02:43:19;;;;;;;14.20;8.97;;;10.10;92.00;;;;;;7394223;19;20138;-76
2022/03/25 02:45:45;;;;;;;16.53;9.60;;;10.10;91.90;;;;;;7392234;19;20210;-74
2022/03/25 02:48:11;;;;;;;17.27;9.50;;;10.00;92.00;;;;;;7388353;19;20138;-75
2022/03/25 02:50:37;;;;;;;17.70;9.07;;;9.70;92.10;;;;;;7391511;19;20131;-75
2022/03/25 02:53:03;;;;;;;16.20;9.37;;;9.50;92.60;;;;;;7394102;19;20138;-75
2022/03/25 02:55:29;;;;;;;14.03;8.70;;;9.60;92.70;;;;;;7393248;19;20135;-75
2022/03/25 02:57:56;;;;;;;17.83;9.87;;;9.90;92.50;;;;;;7387324;19;20134;-74
2022/03/25 03:00:25;;;;;;;15.63;10.00;;;10.10;92.40;;;;;;7390974;19;20134;-74
2022/03/25 03:02:52;;;;;;;16.47;9.93;;;10.10;92.10;;;;;;7390086;19;20119;-76
2022/03/25 03:05:17;;;;;;;17.97;9.60;;;10.20;91.90;;;;;;7389590;19;20153;-74
2022/03/25 03:07:48;;;;;;;16.67;9.90;;;10.20;91.90;;;;;;7391717;19;20537;-75
2022/03/25 03:10:15;;;;;;;20.57;10.33;;;10.10;92.00;;;;;;7392068;19;20138;-73
2022/03/25 03:12:41;;;;;;;14.67;9.17;;;10.10;92.10;;;;;;7389358;19;20131;-74
2022/03/25 03:15:08;;;;;;;16.70;9.57;;;10.00;92.00;;;;;;7390403;19;20597;-74
2022/03/25 03:17:34;;;;;;;17.97;9.23;;;9.60;92.10;;;;;;7388286;19;20123;-74
2022/03/25 03:20:00;;;;;;;16.27;9.10;;;9.70;92.30;;;;;;7390851;19;20142;-75
2022/03/25 03:22:26;;;;;;;16.67;10.07;;;9.80;92.00;;;;;;7388175;19;20876;-74
2022/03/25 03:24:55;;;;;;;18.50;9.77;;;9.50;92.30;;;;;;7390654;19;20147;-73
2022/03/25 03:27:21;;;;;;;19.97;10.10;;;9.30;92.60;;;;;;7391704;19;20625;-75
2022/03/25 03:29:47;;;;;;;17.40;8.97;;;9.40;92.60;;;;;;7388995;19;20178;-74
2022/03/25 03:32:12;;;;;;;15.77;9.33;;;9.50;92.50;;;;;;7388931;19;20131;-74
2022/03/25 03:34:38;;;;;;;17.10;9.83;;;9.70;92.20;;;;;;7389317;19;20186;-74
2022/03/25 03:37:04;;;;;;;16.57;9.43;;;9.60;92.10;;;;;;7386582;19;20150;-74
2022/03/25 03:39:30;;;;;;;17.50;9.87;;;9.80;91.90;;;;;;7387141;19;20145;-74
2022/03/25 03:41:56;;;;;;;17.80;9.27;;;9.90;91.80;;;;;;7389222;19;20126;-75
2022/03/25 03:44:23;;;;;;;19.37;9.47;;;9.90;91.70;;;;;;7389392;19;20138;-75
2022/03/25 03:46:49;;;;;;;18.83;10.27;;;9.90;92.10;;;;;;7388137;19;20134;-75
2022/03/25 03:49:15;;;;;;;18.33;10.13;;;10.00;92.10;;;;;;7387238;19;20137;-75
2022/03/25 03:51:40;;;;;;;17.70;9.90;;;9.90;92.30;;;;;;7388944;19;20534;-74
2022/03/25 03:54:06;;;;;;;14.87;9.93;;;9.90;92.40;;;;;;7389466;19;20127;-74
2022/03/25 03:56:32;;;;;;;16.27;9.33;;;9.80;92.60;;;;;;7385596;19;20138;-74
2022/03/25 03:58:57;;;;;;;17.50;9.73;;;9.70;92.60;;;;;;7389642;19;20478;-75
2022/03/25 04:01:23;;;;;;;14.60;9.27;;;9.70;92.70;;;;;;7386538;19;20555;-74
2022/03/25 04:03:49;;;;;;;15.23;9.60;;;9.70;92.80;;;;;;7388589;19;20131;-74
2022/03/25 04:06:15;;;;;;;20.00;9.50;;;9.70;92.70;;;;;;7386055;19;20244;-74
2022/03/25 04:08:40;;;;;;;16.83;9.67;;;9.80;92.80;;;;;;7386440;19;20131;-75
2022/03/25 04:11:07;;;;;;;16.10;9.50;;;9.70;92.80;;;;;;7392154;19;20138;-74
2022/03/25 04:13:32;;;;;;;17.97;9.67;;;9.70;92.70;;;;;;7387806;19;20133;-74
2022/03/25 04:15:58;;;;;;;17.50;10.30;;;9.70;92.60;;;;;;7386178;19;20131;-74
2022/03/25 04:18:24;;;;;;;15.80;9.23;;;9.30;92.90;;;;;;7384868;19;20505;-74
2022/03/25 04:20:50;;;;;;;16.03;9.43;;;9.30;93.10;;;;;;7387576;19;20142;-74
2022/03/25 04:23:16;;;;;;;15.90;9.57;;;9.40;93.20;;;;;;7386367;19;20140;-74
2022/03/25 04:25:42;;;;;;;18.70;10.10;;;9.40;93.00;;;;;;7387543;19;20131;-74
2022/03/25 04:28:09;;;;;;;16.97;10.13;;;9.60;93.00;;;;;;7385549;19;20162;-74
2022/03/25 04:30:37;;;;;;;16.47;9.53;;;9.60;93.00;;;;;;7388239;19;20141;-75
2022/03/25 04:33:04;;;;;;;14.77;8.87;;;9.60;93.00;;;;;;7386367;19;20150;-74
2022/03/25 04:35:30;;;;;;;16.83;9.20;;;9.60;93.00;;;;;;7387795;19;20137;-75
2022/03/25 04:37:58;;;;;;;18.60;10.27;;;9.40;93.10;;;;;;7380485;19;20122;-74
2022/03/25 04:40:29;;;;;;;19.17;9.00;;;9.30;93.30;;;;;;7384435;19;20620;-73
2022/03/25 04:42:57;;;;;;;19.13;10.37;;;9.40;93.40;;;;;;7389655;19;20138;-74
2022/03/25 04:45:24;;;;;;;17.53;9.13;;;9.40;93.40;;;;;;7386721;19;20130;-74
2022/03/25 04:47:50;;;;;;;21.33;9.97;;;9.40;93.40;;;;;;7384730;19;20131;-74
2022/03/25 04:50:17;;;;;;;16.13;9.50;;;9.50;93.30;;;;;;7386139;19;20135;-74
2022/03/25 04:52:42;;;;;;;16.40;8.93;;;9.40;93.30;;;;;;7386429;19;20131;-73
2022/03/25 04:55:10;;;;;;;16.13;9.67;;;9.40;93.40;;;;;;7387791;19;20560;-74
2022/03/25 04:57:35;;;;;;;19.43;9.33;;;9.40;93.50;;;;;;7385636;19;20219;-74
2022/03/25 05:00:01;;;;;;;16.10;9.67;;;9.20;93.60;;;;;;7389380;19;20537;-74
2022/03/25 05:02:27;;;;;;;14.43;9.10;;;9.20;93.90;;;;;;7384352;19;20133;-73
2022/03/25 05:04:55;;;;;;;18.40;10.57;;;9.20;93.60;;;;;;7384664;19;20135;-75
2022/03/25 05:07:21;;;;;;;17.70;9.17;;;9.10;93.40;;;;;;7385890;19;20131;-74
2022/03/25 05:09:47;;;;;;;18.20;9.70;;;9.20;93.30;;;;;;7386105;19;20130;-75
2022/03/25 05:12:12;;;;;;;15.57;9.83;;;9.10;93.20;;;;;;7386388;19;20127;-74
2022/03/25 05:14:40;;;;;;;16.00;9.47;;;9.10;93.30;;;;;;7384437;19;20135;-74
2022/03/25 05:17:06;;;;;;;17.07;9.73;;;9.20;93.20;;;;;;7387588;19;20130;-74
2022/03/25 05:19:32;;;;;;;15.53;9.57;;;9.10;93.20;;;;;;7385622;19;20126;-73
2022/03/25 05:21:58;;;;;;;15.67;9.57;;;9.20;93.30;;;;;;7386186;19;20137;-73
2022/03/25 05:24:25;;;;;;;18.70;9.57;;;9.20;93.30;;;;;;7385718;19;20591;-73
2022/03/25 05:26:51;;;;;;;15.03;9.00;;;9.20;93.20;;;;;;7384012;19;20186;-73
2022/03/25 05:29:17;;;;;;;17.37;9.77;;;9.20;93.20;;;;;;7382024;19;20758;-74
2022/03/25 05:31:42;;;;;;;17.37;9.70;;;9.20;93.20;;;;;;7386712;19;20143;-74
2022/03/25 05:34:08;;;;;;;18.43;9.67;;;9.20;93.40;;;;;;7385211;19;20625;-74
2022/03/25 05:36:34;;;;;;;14.60;9.73;;;9.10;93.20;;;;;;7388105;19;20135;-74
2022/03/25 05:39:01;;;;;;;15.07;9.27;;;9.20;93.60;;;;;;7381157;19;20168;-75
2022/03/25 05:41:27;;;;;;;16.17;9.37;;;9.10;93.80;;;;;;7384124;19;20166;-75
2022/03/25 05:43:53;;;;;;;19.20;8.97;;;9.00;94.00;;;;;;7389949;19;20625;-73
2022/03/25 05:46:20;;;;;;;16.10;9.93;;;9.10;93.70;;;;;;7383247;19;20210;-74
2022/03/25 05:48:46;;;;;;;18.03;9.70;;;9.10;93.60;;;;;;7386985;19;20131;-74
2022/03/25 05:51:12;;;;;;;15.77;9.67;;;9.00;93.40;;;;;;7393397;19;20131;-74
2022/03/25 05:53:39;;;;;;;16.63;10.10;;;9.10;93.40;;;;;;7394042;19;20135;-73
2022/03/25 05:56:05;;;;;;;19.13;10.20;;;9.10;93.40;;;;;;7391445;19;20513;-75
2022/03/25 05:58:35;;;;;;;21.73;10.17;;;9.20;93.30;;;;;;7390902;19;20194;-75
2022/03/25 06:01:02;;;;;;;16.23;9.23;;;9.20;93.30;;;;;;7392564;19;20152;-74
2022/03/25 06:03:28;;;;;;;18.33;10.13;;;9.10;93.30;;;;;;7390958;19;20194;-74
2022/03/25 06:05:54;;;;;;;17.57;9.87;;;9.00;93.40;;;;;;7390375;19;20922;-74
2022/03/25 06:08:20;;;;;;;17.30;9.57;;;8.90;93.40;;;;;;7391065;19;20155;-75
2022/03/25 06:10:46;;;;;;;18.40;9.33;;;8.90;93.50;;;;;;7395262;19;20134;-74
2022/03/25 06:13:12;;;;;;;20.23;9.33;;;8.90;93.40;;;;;;7392281;19;20127;-75
2022/03/25 06:15:37;;;;;;;18.77;9.87;;;8.90;93.50;;;;;;7390921;19;20223;-73
2022/03/25 06:18:03;;;;;;;18.47;10.90;;;8.90;93.60;;;;;;7391831;19;20138;-73
2022/03/25 06:20:29;;;;;;;17.47;9.93;;;8.90;93.50;;;;;;7391716;19;20138;-75
2022/03/25 06:22:56;;;;;;;15.30;9.20;;;9.00;93.40;;;;;;7391805;19;20206;-75
2022/03/25 06:25:22;;;;;;;14.97;9.90;;;9.00;93.50;;;;;;7390424;19;20134;-74
2022/03/25 06:27:53;;;;;;;17.60;10.83;;;8.90;93.70;;;;;;7388444;19;20210;-74
2022/03/25 06:30:31;;;;;;;16.13;9.70;;;9.00;93.60;;;;;;7391810;19;20392;-75
2022/03/25 06:32:56;;;;;;;21.50;10.27;;;9.10;93.70;;;;;;7390118;19;20333;-74
2022/03/25 06:35:22;;;;;;;15.83;10.00;;;9.30;93.30;;;;;;7389052;19;20130;-75
2022/03/25 06:37:48;;;;;;;20.77;10.33;;;9.30;93.00;;;;;;7389411;19;20228;-76
2022/03/25 06:40:15;;;;;;;16.37;9.77;;;9.30;93.10;;;;;;7391175;19;20151;-75
2022/03/25 06:42:42;;;;;;;22.77;10.73;;;9.20;93.30;;;;;;7393180;19;20181;-75
2022/03/25 06:45:11;;;;;;;19.67;10.90;;;9.00;93.50;;;;;;7390595;19;20149;-74
2022/03/25 06:47:37;;;;;;;17.47;10.47;;;8.60;93.80;;;;;;7388122;19;20470;-75
2022/03/25 06:50:05;;;;;;;19.77;10.90;;;8.90;93.60;;;;;;7388886;19;20159;-76
2022/03/25 06:52:31;;;;;;;18.93;10.20;;;9.20;93.40;;;;;;7390589;19;20131;-76
2022/03/25 06:54:57;;;;;;;17.93;10.80;;;9.40;93.00;;;;;;7388203;19;20126;-75
2022/03/25 06:57:23;;;;;;;17.27;10.13;;;9.40;92.80;;;;;;7387670;19;20139;-76
2022/03/25 06:59:49;;;;;;;19.10;11.00;;;9.40;93.00;;;;;;7394873;19;20134;-76
2022/03/25 07:02:18;;;;;;;18.23;11.47;;;9.40;93.10;;;;;;7388959;19;20134;-75
2022/03/25 07:04:44;;;;;;;29.97;11.00;;;9.40;92.90;;;;;;7388618;19;20194;-75
2022/03/25 07:07:11;;;;;;;23.13;11.00;;;9.40;92.90;;;;;;7390716;19;20260;-76
2022/03/25 07:09:37;;;;;;;24.20;11.30;;;9.40;92.80;;;;;;7389995;19;20158;-76
2022/03/25 07:12:03;;;;;;;24.43;10.33;;;9.40;92.90;;;;;;7388428;19;20152;-75
2022/03/25 07:14:29;;;;;;;24.20;10.97;;;9.40;93.00;;;;;;7389961;19;20201;-75
2022/03/25 07:16:55;;;;;;;19.67;11.57;;;9.50;92.90;;;;;;7387668;19;20138;-75
2022/03/25 07:19:25;;;;;;;21.30;11.60;;;9.60;93.20;;;;;;7388523;19;20142;-75
2022/03/25 07:21:52;;;;;;;20.40;10.97;;;9.60;92.80;;;;;;7391462;19;20139;-75
2022/03/25 07:24:18;;;;;;;20.30;11.50;;;9.50;92.80;;;;;;7388031;19;20135;-75
2022/03/25 07:26:44;;;;;;;22.80;11.03;;;9.60;92.90;;;;;;7387131;19;20134;-76
2022/03/25 07:29:11;;;;;;;17.63;11.03;;;9.60;92.70;;;;;;7388166;19;20171;-76
2022/03/25 07:31:37;;;;;;;18.87;11.80;;;9.60;92.80;;;;;;7389433;19;20202;-76
2022/03/25 07:34:03;;;;;;;20.97;11.50;;;9.60;92.80;;;;;;7387631;19;20151;-76
2022/03/25 07:36:29;;;;;;;19.70;11.20;;;9.60;92.80;;;;;;7386212;19;20169;-76
2022/03/25 07:38:55;;;;;;;17.93;9.93;;;9.50;92.70;;;;;;7386651;19;20143;-74
2022/03/25 07:41:21;;;;;;;19.67;11.07;;;9.60;92.80;;;;;;7389260;19;20153;-77
2022/03/25 07:43:47;;;;;;;19.00;11.90;;;9.60;92.70;;;;;;7395131;19;20208;-76
2022/03/25 07:46:13;;;;;;;18.17;11.27;;;9.70;92.60;;;;;;7387180;19;20135;-76
2022/03/25 07:48:39;;;;;;;22.07;11.73;;;9.80;92.40;;;;;;7388785;19;20152;-76
2022/03/25 07:51:05;;;;;;;20.80;11.40;;;9.90;92.30;;;;;;7387091;19;20184;-76
2022/03/25 07:53:32;;;;;;;19.10;11.67;;;9.90;92.20;;;;;;7388857;19;20134;-77
2022/03/25 07:55:58;;;;;;;17.37;11.20;;;10.00;92.20;;;;;;7386202;19;20129;-76
2022/03/25 07:58:25;;;;;;;19.93;11.03;;;10.10;92.10;;;;;;7386649;19;20131;-75
2022/03/25 08:00:51;;;;;;;17.93;10.90;;;10.10;91.90;;;;;;7389234;19;20127;-76
2022/03/25 08:03:18;;;;;;;25.03;12.43;;;10.10;92.00;;;;;;7388996;19;20213;-76
2022/03/25 08:05:47;;;;;;;21.60;11.77;;;10.30;92.00;;;;;;7388942;19;20138;-76
2022/03/25 08:08:13;;;;;;;24.10;11.60;;;10.30;91.70;;;;;;7386280;19;20127;-76
2022/03/25 08:10:39;;;;;;;27.70;12.43;;;10.30;91.70;;;;;;7389306;19;20776;-76
2022/03/25 08:13:05;;;;;;;19.80;12.03;;;10.40;91.60;;;;;;7385116;19;20139;-76
2022/03/25 08:15:34;;;;;;;24.83;12.73;;;10.40;91.60;;;;;;7387313;19;20171;-75
2022/03/25 08:18:18;;;;;;;28.73;13.23;;;10.60;91.40;;;;;;7385119;19;20190;-77
2022/03/25 08:20:47;;;;;;;22.37;11.93;;;10.70;91.20;;;;;;7385064;19;20158;-76
2022/03/25 08:28:52;;;;;;;26.07;12.23;;;11.10;90.90;;;;;;7383805;19;20158;-77
2022/03/25 08:31:18;;;;;;;22.53;12.60;;;11.30;90.70;;;;;;7385942;19;20933;-76
2022/03/25 08:33:45;;;;;;;22.93;11.70;;;11.40;90.40;;;;;;7384096;19;20154;-76
2022/03/25 08:36:11;;;;;;;27.20;12.10;;;11.60;90.40;;;;;;7385312;19;20210;-75
2022/03/25 08:38:37;;;;;;;23.20;13.33;;;11.70;90.20;;;;;;7385189;19;20138;-76
2022/03/25 08:41:04;;;;;;;23.03;11.80;;;11.80;89.90;;;;;;7384360;19;20151;-76
2022/03/25 08:43:30;;;;;;;22.33;11.77;;;12.00;89.60;;;;;;7388329;19;20135;-77
2022/03/25 08:45:56;;;;;;;19.17;11.77;;;12.10;89.00;;;;;;7384790;19;20135;-75
2022/03/25 08:48:23;;;;;;;21.07;12.30;;;12.20;88.70;;;;;;7384386;19;20255;-76
2022/03/25 08:50:49;;;;;;;23.57;12.97;;;12.30;88.50;;;;;;7384316;19;20143;-77
2022/03/25 08:53:28;;;;;;;23.33;12.83;;;12.40;88.20;;;;;;7385727;19;20138;-77
2022/03/25 08:55:55;;;;;;;27.23;13.03;;;12.50;88.10;;;;;;7382741;19;20130;-77
2022/03/25 08:58:21;;;;;;;20.47;12.33;;;12.70;87.50;;;;;;7384187;19;20141;-76
2022/03/25 09:00:47;;;;;;;27.10;13.13;;;12.70;87.30;;;;;;7384669;19;20127;-76
2022/03/25 09:03:12;;;;;;;23.80;13.13;;;12.80;86.90;;;;;;7385843;19;20131;-78
2022/03/25 09:05:38;;;;;;;25.37;12.97;;;12.90;86.20;;;;;;7385199;19;20594;-77
2022/03/25 09:08:05;;;;;;;22.50;12.90;;;13.00;85.70;;;;;;7384495;19;20127;-76
2022/03/25 09:10:30;;;;;;;22.43;13.13;;;13.00;84.80;;;;;;7387180;19;20210;-77
2022/03/25 09:12:56;;;;;;;24.10;12.87;;;13.10;84.90;;;;;;7383846;19;20673;-77
2022/03/25 09:15:22;;;;;;;24.63;13.53;;;13.20;84.20;;;;;;7384178;19;20141;-78
2022/03/25 09:17:49;;;;;;;21.97;13.23;;;13.30;83.60;;;;;;7383947;19;20135;-76
2022/03/25 09:20:16;;;;;;;27.07;13.60;;;13.30;83.30;;;;;;7383975;19;20586;-77
2022/03/25 09:22:43;;;;;;;22.97;12.30;;;13.40;83.10;;;;;;7383409;19;20160;-75
2022/03/25 09:25:09;;;;;;;23.13;13.17;;;13.50;82.40;;;;;;7390087;19;20134;-76
2022/03/25 09:27:37;;;;;;;22.57;13.20;;;13.40;82.00;;;;;;7392244;19;20138;-76
2022/03/25 09:30:07;;;;;;;25.43;13.50;;;13.50;81.80;;;;;;7393518;19;20190;-75
2022/03/25 09:32:33;;;;;;;23.60;13.17;;;13.60;82.00;;;;;;7394676;19;20135;-76
2022/03/25 09:35:09;;;;;;;23.47;13.30;;;13.70;81.90;;;;;;7390890;19;20139;-76
2022/03/25 09:37:42;;;;;;;23.60;13.40;;;13.80;81.50;;;;;;7391686;19;20126;-76
2022/03/25 09:40:14;;;;;;;25.70;13.80;;;13.80;81.20;;;;;;7391920;19;20457;-76
2022/03/25 09:42:41;;;;;;;21.63;13.63;;;13.90;80.90;;;;;;7393031;19;20210;-77
2022/03/25 09:45:09;;;;;;;23.60;13.83;;;13.90;80.90;;;;;;7390941;19;20157;-76
2022/03/25 09:47:35;;;;;;;26.10;14.10;;;14.00;80.70;;;;;;7390357;19;20137;-75
2022/03/25 09:50:03;;;;;;;22.60;14.30;;;14.00;80.70;;;;;;7392168;19;20131;-76
2022/03/25 09:52:31;;;;;;;21.92;13.85;;;14.10;80.70;;;;;;7394050;19;20127;-76
2022/03/25 09:54:58;;;;;;;24.73;13.97;;;14.10;80.50;;;;;;7391432;19;20139;-77
2022/03/25 09:57:26;;;;;;;27.13;14.67;;;14.20;80.60;;;;;;7388824;19;20614;-76
2022/03/25 09:59:55;;;;;;;25.80;14.63;;;14.30;80.00;;;;;;7394518;19;20504;-77
2022/03/25 10:02:24;;;;;;;28.55;14.55;;;14.40;79.20;;;;;;7392073;19;20139;-77
2022/03/25 10:04:50;;;;;;;26.37;14.57;;;14.50;78.90;;;;;;7391851;19;20606;-78
2022/03/25 10:07:27;;;;;;;25.42;14.02;;;14.60;78.10;;;;;;7391372;19;20131;-76
2022/03/25 10:10:10;;;;;;;22.85;13.75;;;14.80;78.10;;;;;;7392335;19;20149;-77
2022/03/25 10:12:39;;;;;;;26.38;14.35;;;14.70;77.20;;;;;;7391381;19;20212;-76
2022/03/25 10:15:26;;;;;;;25.37;14.33;;;14.80;77.20;;;;;;7391126;19;20131;-76
2022/03/25 10:18:03;;;;;;;28.77;15.02;;;14.80;76.70;;;;;;7390551;19;20149;-74
2022/03/25 10:20:48;;;;;;;22.58;14.00;;;14.90;76.40;;;;;;7390893;19;20147;-76
2022/03/25 10:23:17;;;;;;;26.15;14.52;;;15.00;75.30;;;;;;7389881;19;20222;-76
2022/03/25 10:25:55;;;;;;;25.05;14.65;;;15.10;74.60;;;;;;7389589;19;20134;-75
2022/03/25 10:28:28;;;;;;;22.60;13.77;;;15.00;73.60;;;;;;7389290;19;20155;-76
2022/03/25 10:31:02;;;;;;;21.15;13.45;;;15.20;73.70;;;;;;7391588;19;20138;-78
2022/03/25 10:33:37;;;;;;;23.15;13.85;;;15.50;71.10;;;;;;7391516;19;20153;-76
2022/03/25 10:36:10;;;;;;;21.55;13.07;;;15.50;71.40;;;;;;7392209;19;20148;-79
2022/03/25 10:38:44;;;;;;;24.15;14.52;;;15.50;72.70;;;;;;7390899;19;20141;-76
2022/03/25 10:41:12;;;;;;;23.40;14.55;;;15.50;72.40;;;;;;7391960;19;20233;-77
2022/03/25 10:44:08;;;;;;;24.55;14.23;;;15.70;72.20;;;;;;7396973;19;20511;-78
2022/03/25 10:46:42;;;;;;;28.15;14.57;;;15.80;72.80;;;;;;7390314;19;20174;-78
2022/03/25 10:49:17;;;;;;;23.13;14.68;;;15.80;72.70;;;;;;7389141;19;20741;-76
2022/03/25 10:52:01;;;;;;;21.90;14.25;;;15.90;72.90;;;;;;7388791;19;20230;-76
2022/03/25 10:54:28;;;;;;;27.95;14.02;;;16.00;73.40;;;;;;7390830;19;20159;-77
2022/03/25 10:56:59;;;;;;;24.65;14.90;;;16.00;73.50;;;;;;7388874;19;20693;-76
2022/03/25 10:59:30;;;;;;;22.10;14.30;;;16.00;73.90;;;;;;7392767;19;20633;-76
2022/03/25 11:02:17;;;;;;;23.98;14.82;;;16.20;73.70;;;;;;7393494;19;20142;-75
2022/03/25 11:04:43;;;;;;;24.25;14.88;;;16.40;73.40;;;;;;7392110;19;20140;-77
2022/03/25 11:07:10;;;;;;;23.27;14.43;;;16.50;71.90;;;;;;7389772;19;20134;-77
2022/03/25 11:09:36;;;;;;;22.95;13.95;;;16.60;71.60;;;;;;7388552;19;20592;-78
2022/03/25 11:12:01;;;;;;;25.40;15.18;;;16.50;71.30;;;;;;7388029;19;20135;-77
2022/03/25 11:14:27;;;;;;;28.75;17.40;;;16.60;71.10;;;;;;7388670;19;20472;-76
2022/03/25 11:16:55;;;;;;;21.55;14.20;;;16.60;71.40;;;;;;7387867;19;20141;-78
2022/03/25 11:19:23;;;;;;;24.88;15.13;;;16.70;70.90;;;;;;7390701;19;20134;-79
2022/03/25 11:21:50;;;;;;;24.58;14.55;;;16.70;70.50;;;;;;7394251;19;20155;-77
2022/03/25 11:24:54;;;;;;;26.02;15.23;;;16.70;70.90;;;;;;7393509;19;20130;-77
2022/03/25 11:27:33;;;;;;;22.25;13.80;;;16.90;70.20;;;;;;7386811;19;20130;-79
2022/03/25 11:30:13;;;;;;;23.85;13.30;;;17.00;67.80;;;;;;7388503;19;20127;-77
2022/03/25 11:33:04;;;;;;;23.20;13.07;;;17.30;66.30;;;;;;7388805;19;20138;-76
2022/03/25 11:35:38;;;;;;;19.13;12.18;;;17.10;66.10;;;;;;7389642;19;20622;-78
2022/03/25 11:38:11;;;;;;;22.38;13.93;;;17.10;67.10;;;;;;7385090;19;20155;-77
2022/03/25 11:40:46;;;;;;;21.13;13.27;;;17.30;66.90;;;;;;7389079;19;20122;-76
2022/03/25 11:43:19;;;;;;;22.00;13.63;;;17.30;66.80;;;;;;7391970;19;20131;-77
2022/03/25 11:46:06;;;;;;;18.75;13.20;;;17.50;66.20;;;;;;7388775;19;20134;-77
2022/03/25 11:48:41;;;;;;;21.77;13.63;;;17.40;65.70;;;;;;7388019;19;20130;-78
2022/03/25 11:51:33;;;;;;;22.40;14.23;;;17.60;65.80;;;;;;7388479;19;20139;-76
2022/03/25 11:54:03;;;;;;;20.17;13.23;;;17.90;65.40;;;;;;7387277;19;20171;-77
2022/03/25 11:56:47;;;;;;;19.40;13.25;;;18.00;64.50;;;;;;7386672;19;20126;-76
2022/03/25 11:59:15;;;;;;;22.30;13.18;;;17.90;64.20;;;;;;7387399;19;20627;-79
2022/03/25 12:01:41;;;;;;;25.58;13.27;;;18.00;64.90;;;;;;7385911;19;20518;-78
2022/03/25 12:04:13;;;;;;;22.70;13.10;;;18.10;64.40;;;;;;7394262;19;20123;-78
2022/03/25 12:07:00;;;;;;;20.58;13.65;;;18.10;64.60;;;;;;7387398;19;20141;-77
2022/03/25 12:09:37;;;;;;;21.08;13.27;;;18.10;64.50;;;;;;7387240;19;20837;-79
2022/03/25 12:12:04;;;;;;;25.10;13.90;;;18.20;64.80;;;;;;7387503;19;20139;-80
2022/03/25 12:14:31;;;;;;;20.80;13.63;;;18.20;65.10;;;;;;7389165;19;20535;-78
2022/03/25 12:17:08;;;;;;;22.30;13.02;;;18.30;66.00;;;;;;7386156;19;20998;-77
2022/03/25 12:19:41;;;;;;;22.63;13.93;;;18.50;65.90;;;;;;7387517;19;20485;-77
2022/03/25 12:22:21;;;;;;;22.25;13.73;;;18.50;63.90;;;;;;7385293;19;20118;-78
2022/03/25 12:24:49;;;;;;;20.17;13.18;;;18.60;63.70;;;;;;7389466;19;20137;-78
2022/03/25 12:27:15;;;;;;;22.90;14.00;;;18.50;63.20;;;;;;7386390;19;20142;-77
2022/03/25 12:29:43;;;;;;;18.73;12.82;;;18.60;62.50;;;;;;7384893;19;20157;-77
2022/03/25 12:32:14;;;;;;;20.33;12.88;;;18.70;62.30;;;;;;7387244;19;20126;-77
2022/03/25 12:35:00;;;;;;;19.05;12.23;;;18.80;63.10;;;;;;7384452;19;20203;-78
2022/03/25 12:37:35;;;;;;;19.85;12.52;;;19.00;62.50;;;;;;7386054;19;20608;-77
2022/03/25 12:40:16;;;;;;;21.38;14.00;;;18.90;63.00;;;;;;7385728;19;20417;-77
2022/03/25 12:42:42;;;;;;;19.83;13.82;;;19.00;62.40;;;;;;7387520;19;20142;-77
2022/03/25 12:45:09;;;;;;;19.52;12.95;;;19.00;63.10;;;;;;7385291;19;20146;-77
2022/03/25 12:47:37;;;;;;;18.83;13.10;;;18.90;63.50;;;;;;7389060;19;20139;-76